Time;durP1;ratioP1;P1;durP2;ratioP2;P2;SDS_P1;SDS_P2;PMS_P1;PMS_P2;Temp;Humidity;BMP_temperature;BMP_pressure;BME280_temperature;BME280_humidity;BME280_pressure;Samples;Min_cycle;Max_cycle;Signal;HPM_P1;HPM_P2
2023/02/07 00:01:08;;;;;;;15.63;8.48;;;1.80;79.90;;;;;;5016436;28;20212;-74
2023/02/07 00:03:34;;;;;;;16.20;8.20;;;1.70;78.70;;;;;;5020352;28;20197;-74
2023/02/07 00:06:08;;;;;;;14.07;8.10;;;1.60;77.60;;;;;;5021503;28;20208;-75
2023/02/07 00:08:35;;;;;;;11.95;7.20;;;1.60;77.10;;;;;;5024397;28;20204;-74
2023/02/07 00:11:06;;;;;;;19.25;9.48;;;1.50;77.00;;;;;;5033787;28;20236;-77
2023/02/07 00:13:32;;;;;;;16.13;7.70;;;1.40;76.80;;;;;;5021234;28;20224;-76
2023/02/07 00:15:58;;;;;;;16.35;8.10;;;1.30;77.10;;;;;;5021026;28;20181;-73
2023/02/07 00:18:24;;;;;;;12.10;7.70;;;1.30;77.10;;;;;;5020313;28;20185;-74
2023/02/07 00:21:08;;;;;;;15.60;8.23;;;1.20;77.10;;;;;;5018805;28;20594;-75
2023/02/07 00:23:35;;;;;;;19.30;8.05;;;1.10;77.40;;;;;;5023055;28;20858;-74
2023/02/07 00:26:00;;;;;;;15.93;8.63;;;1.00;77.40;;;;;;5016320;28;20563;-75
2023/02/07 00:28:26;;;;;;;19.60;9.53;;;1.00;77.60;;;;;;5019756;28;20178;-75
2023/02/07 00:31:04;;;;;;;17.63;8.50;;;0.90;77.60;;;;;;5022368;28;20219;-75
2023/02/07 00:33:30;;;;;;;16.92;7.70;;;0.80;77.70;;;;;;5008740;28;20184;-74
2023/02/07 00:36:00;;;;;;;18.97;8.63;;;0.80;77.70;;;;;;5014329;28;20637;-74
2023/02/07 00:38:26;;;;;;;16.60;7.85;;;0.80;77.70;;;;;;5010828;28;20542;-76
2023/02/07 00:40:52;;;;;;;16.67;8.32;;;0.80;77.60;;;;;;5021839;28;20177;-73
2023/02/07 00:43:17;;;;;;;14.20;8.03;;;0.70;77.30;;;;;;5013978;28;20210;-73
2023/02/07 00:45:43;;;;;;;13.10;7.60;;;0.60;77.10;;;;;;5010810;28;20201;-73
2023/02/07 00:48:08;;;;;;;13.83;7.57;;;0.50;77.10;;;;;;5011006;28;20194;-74
2023/02/07 00:50:34;;;;;;;10.63;6.20;;;0.50;76.80;;;;;;5014225;28;20574;-73
2023/02/07 00:52:59;;;;;;;15.50;7.33;;;0.40;76.70;;;;;;5013534;28;20244;-73
2023/02/07 00:55:25;;;;;;;16.30;7.77;;;0.30;77.00;;;;;;5018825;28;20181;-75
2023/02/07 00:57:50;;;;;;;14.20;8.40;;;0.30;77.10;;;;;;5011615;28;20303;-74
2023/02/07 01:00:16;;;;;;;14.77;7.80;;;0.30;77.10;;;;;;5020209;28;20286;-75
2023/02/07 01:02:42;;;;;;;17.97;8.60;;;0.30;77.10;;;;;;5023793;28;20202;-74
2023/02/07 01:05:07;;;;;;;12.43;7.90;;;0.30;77.30;;;;;;5019660;28;20194;-76
2023/02/07 01:07:33;;;;;;;18.80;8.00;;;0.30;77.70;;;;;;5013060;28;20601;-76
2023/02/07 01:09:58;;;;;;;22.00;8.83;;;0.30;78.10;;;;;;5021251;28;20209;-76
2023/02/07 01:12:24;;;;;;;17.43;9.40;;;0.20;78.60;;;;;;5013777;28;20703;-77
2023/02/07 01:14:50;;;;;;;16.73;8.47;;;0.30;78.90;;;;;;5023197;28;20494;-76
2023/02/07 01:17:15;;;;;;;17.57;8.60;;;0.20;79.00;;;;;;5014983;28;20375;-76
2023/02/07 01:19:41;;;;;;;17.37;8.97;;;0.10;79.00;;;;;;5018423;28;20551;-76
2023/02/07 01:22:06;;;;;;;22.33;11.03;;;0.00;79.50;;;;;;5003732;28;20206;-77
2023/02/07 01:24:34;;;;;;;25.60;11.00;;;0.00;79.70;;;;;;5020730;28;20641;-75
2023/02/07 01:27:00;;;;;;;18.80;9.88;;;-0.10;80.00;;;;;;5017154;28;20668;-76
2023/02/07 01:29:25;;;;;;;23.48;10.48;;;-0.10;80.60;;;;;;5018956;28;20210;-76
2023/02/07 01:31:52;;;;;;;26.60;11.17;;;-0.10;80.80;;;;;;5020517;28;20287;-75
2023/02/07 01:34:18;;;;;;;21.63;9.77;;;-0.20;80.90;;;;;;5020343;28;20188;-75
2023/02/07 01:36:44;;;;;;;20.97;10.47;;;-0.20;80.90;;;;;;5013809;28;20256;-75
2023/02/07 01:39:10;;;;;;;22.00;10.83;;;-0.20;80.90;;;;;;5022793;28;20963;-75
2023/02/07 01:41:36;;;;;;;26.38;10.50;;;-0.20;81.20;;;;;;5025851;28;20268;-76
2023/02/07 01:44:06;;;;;;;26.98;12.02;;;-0.20;81.20;;;;;;5039856;28;20245;-74
2023/02/07 01:46:33;;;;;;;24.00;11.20;;;-0.20;81.20;;;;;;5041754;28;20178;-75
2023/02/07 01:49:07;;;;;;;27.45;12.32;;;-0.20;81.10;;;;;;5024554;28;20664;-75
2023/02/07 01:51:34;;;;;;;23.63;11.38;;;-0.30;81.10;;;;;;5013266;28;20221;-75
2023/02/07 01:54:03;;;;;;;23.98;11.75;;;-0.30;81.40;;;;;;5007845;28;20170;-75
2023/02/07 01:56:30;;;;;;;29.17;11.50;;;-0.40;81.80;;;;;;5021194;28;20174;-75
2023/02/07 01:58:56;;;;;;;27.13;12.52;;;-0.40;81.90;;;;;;5020585;28;20181;-76
2023/02/07 02:01:24;;;;;;;31.07;11.80;;;-0.40;82.20;;;;;;5011921;28;20231;-76
2023/02/07 02:03:53;;;;;;;25.40;12.25;;;-0.50;81.90;;;;;;5018241;28;20186;-75
2023/02/07 02:06:20;;;;;;;26.63;12.30;;;-0.50;81.90;;;;;;5017959;28;20265;-76
2023/02/07 02:08:46;;;;;;;21.52;11.35;;;-0.60;82.10;;;;;;5012931;28;20251;-75
2023/02/07 02:11:37;;;;;;;26.10;11.73;;;-0.50;82.20;;;;;;5016635;28;20677;-76
2023/02/07 02:14:17;;;;;;;27.83;12.80;;;-0.50;82.10;;;;;;5012253;28;20683;-76
2023/02/07 02:17:09;;;;;;;27.20;13.75;;;-0.60;81.70;;;;;;5005057;28;20672;-77
2023/02/07 02:19:57;;;;;;;21.17;12.07;;;-0.60;81.70;;;;;;5013464;28;20170;-74
2023/02/07 02:22:34;;;;;;;22.60;12.57;;;-0.70;81.40;;;;;;5012069;28;20214;-77
2023/02/07 02:25:22;;;;;;;23.27;12.70;;;-0.80;81.70;;;;;;5023701;28;20232;-76
2023/02/07 02:28:12;;;;;;;26.23;13.45;;;-0.80;81.90;;;;;;5020944;28;20263;-76
2023/02/07 02:30:46;;;;;;;27.42;12.18;;;-0.80;81.50;;;;;;5024407;28;20553;-75
2023/02/07 02:33:24;;;;;;;30.73;12.68;;;-0.80;81.40;;;;;;5020809;28;20251;-75
2023/02/07 02:36:13;;;;;;;26.80;13.02;;;-0.90;81.40;;;;;;5019071;28;20178;-76
2023/02/07 02:39:04;;;;;;;27.65;13.07;;;-0.90;81.90;;;;;;5018440;28;20189;-76
2023/02/07 02:42:01;;;;;;;30.08;13.98;;;-0.90;81.90;;;;;;5012808;28;21135;-76
2023/02/07 02:44:46;;;;;;;26.55;13.75;;;-0.90;81.90;;;;;;5018906;28;20189;-78
2023/02/07 02:47:12;;;;;;;25.95;13.38;;;-1.00;81.90;;;;;;5012780;28;20177;-76
2023/02/07 02:49:39;;;;;;;24.45;13.15;;;-1.00;82.10;;;;;;5022545;28;20637;-75
2023/02/07 02:52:05;;;;;;;25.50;13.13;;;-0.90;81.90;;;;;;5017545;28;20190;-76
2023/02/07 02:54:33;;;;;;;25.08;12.48;;;-1.00;81.40;;;;;;5022649;28;20236;-75
2023/02/07 02:57:21;;;;;;;26.58;14.23;;;-0.90;81.10;;;;;;5033033;28;20265;-74
2023/02/07 02:59:52;;;;;;;26.10;13.40;;;-0.90;80.50;;;;;;5024702;28;20675;-75
2023/02/07 03:02:37;;;;;;;27.92;14.00;;;-0.90;80.30;;;;;;5012935;28;20220;-74
2023/02/07 03:05:37;;;;;;;26.30;13.00;;;-0.90;80.20;;;;;;5013037;28;20174;-75
2023/02/07 03:08:30;;;;;;;29.27;14.13;;;-0.90;80.20;;;;;;5008449;28;20273;-75
2023/02/07 03:11:16;;;;;;;33.03;14.15;;;-0.90;80.20;;;;;;5015879;28;20209;-77
2023/02/07 03:14:04;;;;;;;27.45;13.70;;;-0.90;79.60;;;;;;4990994;28;20209;-76
2023/02/07 03:16:39;;;;;;;24.92;13.93;;;-0.90;79.50;;;;;;5007448;28;20209;-76
2023/02/07 03:19:17;;;;;;;34.97;16.45;;;-1.00;79.60;;;;;;5015553;28;20194;-76
2023/02/07 03:21:48;;;;;;;24.15;13.85;;;-1.00;79.90;;;;;;5004503;28;20256;-77
2023/02/07 03:24:22;;;;;;;32.17;15.43;;;-1.00;80.00;;;;;;5004710;28;20209;-77
2023/02/07 03:26:52;;;;;;;28.40;13.98;;;-1.00;80.00;;;;;;5007585;28;20715;-76
2023/02/07 03:29:20;;;;;;;28.35;15.02;;;-1.00;79.90;;;;;;5007783;28;20421;-74
2023/02/07 03:31:49;;;;;;;32.80;15.15;;;-1.00;79.90;;;;;;5001157;28;20229;-76
2023/02/07 03:34:18;;;;;;;30.08;15.35;;;-1.00;79.70;;;;;;5003206;28;20251;-75
2023/02/07 03:37:03;;;;;;;22.05;13.18;;;-1.00;79.70;;;;;;5001997;28;20205;-76
2023/02/07 03:39:29;;;;;;;27.42;14.30;;;-1.00;79.50;;;;;;5007111;28;20190;-77
2023/02/07 03:42:09;;;;;;;31.57;15.77;;;-1.10;79.60;;;;;;5002925;28;20619;-76
2023/02/07 03:44:36;;;;;;;27.67;15.65;;;-1.00;79.70;;;;;;5012671;28;20277;-77
2023/02/07 03:47:03;;;;;;;27.10;14.82;;;-1.00;79.50;;;;;;5016473;28;20185;-75
2023/02/07 03:49:29;;;;;;;29.70;15.10;;;-1.00;79.60;;;;;;5013375;28;20185;-76
2023/02/07 03:51:54;;;;;;;29.53;14.83;;;-1.00;79.60;;;;;;5011191;28;20221;-77
2023/02/07 03:54:20;;;;;;;29.73;14.33;;;-1.00;79.30;;;;;;5018015;28;20189;-77
2023/02/07 03:56:45;;;;;;;30.53;15.23;;;-1.00;79.00;;;;;;5018683;28;20182;-77
2023/02/07 03:59:11;;;;;;;29.80;15.23;;;-1.10;78.90;;;;;;5012193;28;20180;-78
2023/02/07 04:01:40;;;;;;;24.87;13.97;;;-1.10;79.00;;;;;;5013707;28;20280;-78
2023/02/07 04:04:10;;;;;;;31.58;16.35;;;-1.00;79.00;;;;;;5019120;28;20218;-77
2023/02/07 04:06:36;;;;;;;27.90;14.82;;;-1.00;78.90;;;;;;5013442;28;20182;-76
2023/02/07 04:09:01;;;;;;;34.60;14.97;;;-1.00;78.90;;;;;;5013720;28;20197;-77
2023/02/07 04:11:27;;;;;;;30.10;15.57;;;-1.00;78.90;;;;;;5013180;28;20280;-76
2023/02/07 04:13:53;;;;;;;28.33;14.77;;;-1.10;78.90;;;;;;5019742;28;20206;-76
2023/02/07 04:16:18;;;;;;;28.67;14.90;;;-1.10;79.00;;;;;;5027004;28;20188;-77
2023/02/07 04:18:44;;;;;;;28.37;15.33;;;-1.10;79.30;;;;;;5027547;28;20177;-76
2023/02/07 04:21:09;;;;;;;29.23;16.10;;;-1.10;79.60;;;;;;5032187;28;20192;-77
2023/02/07 04:23:35;;;;;;;29.83;15.50;;;-1.20;79.90;;;;;;5028321;28;20319;-76
2023/02/07 04:26:01;;;;;;;31.47;16.67;;;-1.20;80.30;;;;;;5021101;28;20261;-77
2023/02/07 04:28:27;;;;;;;35.95;16.35;;;-1.20;80.80;;;;;;5018522;28;20888;-77
2023/02/07 04:30:53;;;;;;;34.58;15.35;;;-1.30;80.90;;;;;;5026069;28;20213;-76
2023/02/07 04:33:22;;;;;;;32.57;16.37;;;-1.30;81.20;;;;;;5009867;28;20227;-77
2023/02/07 04:35:58;;;;;;;36.70;16.10;;;-1.40;81.40;;;;;;5023117;28;20213;-78
2023/02/07 04:38:25;;;;;;;27.40;15.43;;;-1.40;81.80;;;;;;5014051;28;20527;-78
2023/02/07 04:40:51;;;;;;;29.85;14.85;;;-1.30;81.90;;;;;;5017242;28;20189;-76
2023/02/07 04:43:17;;;;;;;28.57;14.67;;;-1.30;80.90;;;;;;5015196;28;20764;-76
2023/02/07 04:45:46;;;;;;;32.33;15.43;;;-1.30;80.50;;;;;;5013780;28;20688;-77
2023/02/07 04:48:11;;;;;;;26.05;14.45;;;-1.30;80.60;;;;;;5016816;28;20456;-76
2023/02/07 04:50:37;;;;;;;40.90;17.73;;;-1.30;80.50;;;;;;5012111;28;20244;-76
2023/02/07 04:53:03;;;;;;;36.93;16.73;;;-1.30;81.10;;;;;;5013268;28;20239;-76
2023/02/07 04:55:28;;;;;;;32.30;14.90;;;-1.30;81.50;;;;;;5011893;28;20230;-76
2023/02/07 04:57:54;;;;;;;26.33;14.50;;;-1.40;81.20;;;;;;5014264;28;20186;-76
2023/02/07 05:00:19;;;;;;;32.20;15.37;;;-1.40;80.90;;;;;;5011576;28;20209;-75
2023/02/07 05:02:45;;;;;;;26.70;14.03;;;-1.30;81.10;;;;;;5012136;28;20219;-76
2023/02/07 05:05:10;;;;;;;29.53;15.00;;;-1.30;80.50;;;;;;5009833;28;20539;-76
2023/02/07 05:07:36;;;;;;;28.67;14.20;;;-1.30;80.00;;;;;;5014658;28;20657;-77
2023/02/07 05:10:02;;;;;;;23.33;13.23;;;-1.30;79.30;;;;;;5015948;28;20217;-77
2023/02/07 05:12:27;;;;;;;24.70;13.70;;;-1.30;78.30;;;;;;5008398;28;20344;-76
2023/02/07 05:14:53;;;;;;;25.10;13.60;;;-1.30;77.70;;;;;;5027118;28;20186;-76
2023/02/07 05:17:18;;;;;;;27.30;15.50;;;-1.20;77.80;;;;;;5012768;28;20277;-76
2023/02/07 05:19:44;;;;;;;27.40;15.07;;;-1.20;78.30;;;;;;5016930;28;20981;-77
2023/02/07 05:22:09;;;;;;;26.93;14.07;;;-1.20;78.60;;;;;;5011394;28;20232;-75
2023/02/07 05:24:35;;;;;;;32.30;13.67;;;-1.20;79.00;;;;;;5020908;28;20208;-74
2023/02/07 05:27:01;;;;;;;33.97;14.50;;;-1.20;78.70;;;;;;5021269;28;20227;-76
2023/02/07 05:29:26;;;;;;;28.20;13.93;;;-1.20;78.30;;;;;;5022033;28;20209;-76
2023/02/07 05:34:36;;;;;;;27.60;13.57;;;-1.30;77.80;;;;;;5007477;28;20232;-76
2023/02/07 05:37:01;;;;;;;26.87;14.50;;;-1.30;77.60;;;;;;5019529;28;20178;-75
2023/02/07 05:39:27;;;;;;;25.97;12.63;;;-1.30;78.00;;;;;;5019738;28;20589;-74
2023/02/07 05:41:52;;;;;;;26.67;14.60;;;-1.30;78.90;;;;;;5014475;28;20202;-76
2023/02/07 05:44:18;;;;;;;30.73;14.57;;;-1.30;79.50;;;;;;5020197;28;20193;-76
2023/02/07 05:46:43;;;;;;;27.17;14.47;;;-1.40;79.70;;;;;;5025936;28;20236;-77
2023/02/07 05:49:09;;;;;;;29.33;12.53;;;-1.40;79.50;;;;;;5013775;28;20186;-77
2023/02/07 05:51:34;;;;;;;26.00;14.07;;;-1.40;79.60;;;;;;5012392;28;20240;-75
2023/02/07 05:54:00;;;;;;;28.90;14.60;;;-1.40;79.70;;;;;;5018775;28;20616;-76
2023/02/07 05:56:26;;;;;;;31.57;15.07;;;-1.50;79.70;;;;;;5020523;28;20182;-76
2023/02/07 05:58:52;;;;;;;29.03;15.30;;;-1.50;80.30;;;;;;5018037;28;20219;-74
2023/02/07 06:01:18;;;;;;;29.40;13.55;;;-1.50;80.50;;;;;;5015578;28;20295;-74
2023/02/07 06:03:44;;;;;;;35.33;15.02;;;-1.40;80.80;;;;;;5018223;28;20198;-74
2023/02/07 06:06:09;;;;;;;33.23;14.23;;;-1.30;80.50;;;;;;5029263;28;20193;-73
2023/02/07 06:08:35;;;;;;;22.77;12.30;;;-1.30;80.20;;;;;;5019060;28;20232;-74
2023/02/07 06:11:00;;;;;;;20.57;11.97;;;-1.40;79.70;;;;;;5014938;28;20221;-73
2023/02/07 06:13:26;;;;;;;22.23;11.73;;;-1.40;78.10;;;;;;5011875;28;20575;-76
2023/02/07 06:15:52;;;;;;;23.75;12.05;;;-1.50;77.40;;;;;;5014711;28;20225;-77
2023/02/07 06:18:18;;;;;;;21.83;12.13;;;-1.60;76.80;;;;;;5017450;28;20622;-76
2023/02/07 06:20:43;;;;;;;23.50;11.80;;;-1.60;76.40;;;;;;5014270;28;20247;-76
2023/02/07 06:23:09;;;;;;;23.90;11.80;;;-1.60;76.10;;;;;;5013586;28;20269;-75
2023/02/07 06:25:34;;;;;;;26.30;12.40;;;-1.70;76.10;;;;;;5011055;28;20182;-75
2023/02/07 06:28:00;;;;;;;30.37;12.40;;;-1.80;75.90;;;;;;5014099;28;20645;-74
2023/02/07 06:30:26;;;;;;;29.73;13.17;;;-1.70;76.70;;;;;;5014797;28;20681;-76
2023/02/07 06:32:51;;;;;;;24.87;11.73;;;-1.70;77.00;;;;;;5014535;28;20198;-76
2023/02/07 06:35:17;;;;;;;21.93;10.20;;;-1.70;76.80;;;;;;5021292;28;20185;-74
2023/02/07 06:37:42;;;;;;;22.83;10.90;;;-1.70;76.50;;;;;;5017977;28;20660;-75
2023/02/07 06:40:08;;;;;;;22.93;11.53;;;-1.70;75.90;;;;;;5021972;28;20184;-75
2023/02/07 06:42:34;;;;;;;21.77;10.70;;;-1.70;75.90;;;;;;5018606;28;20225;-76
2023/02/07 06:45:00;;;;;;;26.10;11.70;;;-1.60;75.80;;;;;;5018887;28;20437;-75
2023/02/07 06:47:25;;;;;;;22.83;10.93;;;-1.60;75.40;;;;;;5023355;28;20209;-76
2023/02/07 06:49:51;;;;;;;16.30;9.93;;;-1.50;75.10;;;;;;5024615;28;20248;-75
2023/02/07 06:52:17;;;;;;;24.13;11.80;;;-1.50;75.10;;;;;;5028429;28;20244;-75
2023/02/07 06:54:42;;;;;;;23.60;12.53;;;-1.50;75.10;;;;;;5029125;28;20258;-76
2023/02/07 06:57:08;;;;;;;27.63;12.40;;;-1.50;74.80;;;;;;5018163;28;20916;-75
2023/02/07 06:59:34;;;;;;;22.40;12.37;;;-1.50;74.60;;;;;;5017050;28;20205;-75
2023/02/07 07:02:00;;;;;;;21.05;11.43;;;-1.60;74.80;;;;;;5011872;28;20254;-75
2023/02/07 07:04:26;;;;;;;23.73;12.57;;;-1.60;75.10;;;;;;5017332;28;20653;-75
2023/02/07 07:06:52;;;;;;;19.87;11.00;;;-1.70;75.40;;;;;;5017815;28;20209;-76
2023/02/07 07:09:17;;;;;;;17.13;11.47;;;-1.70;75.70;;;;;;5017139;28;20192;-75
2023/02/07 07:11:43;;;;;;;22.57;12.50;;;-1.70;75.90;;;;;;5010373;28;20226;-75
2023/02/07 07:14:12;;;;;;;30.80;13.77;;;-1.70;76.10;;;;;;5019375;28;20642;-76
2023/02/07 07:16:39;;;;;;;19.92;11.45;;;-1.70;76.20;;;;;;5014070;28;20205;-75
2023/02/07 07:19:05;;;;;;;22.88;13.07;;;-1.70;76.80;;;;;;5024602;28;20185;-76
2023/02/07 07:21:31;;;;;;;22.07;12.30;;;-1.60;76.80;;;;;;5019880;28;20756;-76
2023/02/07 07:23:56;;;;;;;25.67;12.47;;;-1.60;77.00;;;;;;5018548;28;20413;-76
2023/02/07 07:26:22;;;;;;;24.40;12.90;;;-1.60;76.80;;;;;;5024568;28;20193;-76
2023/02/07 07:28:48;;;;;;;29.60;13.80;;;-1.50;77.00;;;;;;5025235;28;20579;-75
2023/02/07 07:31:14;;;;;;;21.80;12.90;;;-1.40;77.10;;;;;;5017331;28;20198;-75
2023/02/07 07:33:40;;;;;;;22.92;13.85;;;-1.40;77.10;;;;;;5013759;28;20443;-75
2023/02/07 07:36:06;;;;;;;27.53;13.07;;;-1.40;76.80;;;;;;5014317;28;20185;-76
2023/02/07 07:38:32;;;;;;;25.15;13.60;;;-1.40;76.70;;;;;;5016373;28;20421;-75
2023/02/07 07:40:59;;;;;;;22.75;12.07;;;-1.40;76.80;;;;;;5020358;28;20190;-75
2023/02/07 07:43:25;;;;;;;26.60;13.75;;;-1.50;77.10;;;;;;5025679;28;20271;-75
2023/02/07 07:45:53;;;;;;;26.83;14.73;;;-1.50;77.40;;;;;;5026825;28;20248;-75
2023/02/07 07:48:19;;;;;;;34.60;15.35;;;-1.50;77.60;;;;;;5032280;28;20185;-76
2023/02/07 07:50:44;;;;;;;26.65;13.73;;;-1.50;77.70;;;;;;5020474;28;20233;-75
2023/02/07 07:53:10;;;;;;;25.03;12.73;;;-1.40;77.70;;;;;;5013803;28;20236;-76
2023/02/07 07:55:37;;;;;;;30.60;13.70;;;-1.50;77.60;;;;;;5020681;28;20248;-75
2023/02/07 07:58:03;;;;;;;24.10;13.48;;;-1.50;77.70;;;;;;5015283;28;20178;-76
2023/02/07 08:00:28;;;;;;;29.52;13.35;;;-1.50;77.80;;;;;;5014477;28;20217;-76
2023/02/07 08:02:54;;;;;;;25.00;14.30;;;-1.50;77.80;;;;;;5012560;28;20688;-76
2023/02/07 08:05:20;;;;;;;34.87;14.73;;;-1.50;78.00;;;;;;5015604;28;20259;-75
2023/02/07 08:07:45;;;;;;;24.77;14.63;;;-1.50;78.00;;;;;;5017418;28;20660;-76
2023/02/07 08:10:11;;;;;;;28.37;14.27;;;-1.40;78.00;;;;;;5020207;28;20235;-74
2023/02/07 08:12:37;;;;;;;36.00;16.73;;;-1.40;77.70;;;;;;5016114;28;20237;-76
2023/02/07 08:15:03;;;;;;;36.33;15.40;;;-1.40;77.60;;;;;;5019862;28;20428;-75
2023/02/07 08:17:28;;;;;;;27.20;14.50;;;-1.40;77.30;;;;;;5029914;28;20705;-75
2023/02/07 08:19:54;;;;;;;33.17;14.23;;;-1.40;77.10;;;;;;5020127;28;20455;-75
2023/02/07 08:22:20;;;;;;;27.23;14.13;;;-1.30;77.30;;;;;;5030350;28;20307;-76
2023/02/07 08:24:46;;;;;;;31.15;13.93;;;-1.30;77.00;;;;;;5016724;28;20281;-78
2023/02/07 08:27:11;;;;;;;26.93;13.00;;;-1.30;76.80;;;;;;5019289;28;20220;-74
2023/02/07 08:29:37;;;;;;;26.27;13.33;;;-1.20;76.80;;;;;;5018487;28;20289;-75
2023/02/07 08:32:04;;;;;;;27.27;13.70;;;-1.20;76.20;;;;;;5018002;28;20223;-75
2023/02/07 08:34:35;;;;;;;23.55;12.38;;;-1.20;75.80;;;;;;5018031;28;20178;-74
2023/02/07 08:37:02;;;;;;;25.27;12.30;;;-1.20;75.40;;;;;;5020650;28;20205;-75
2023/02/07 08:39:28;;;;;;;23.15;12.75;;;-1.20;75.20;;;;;;5011729;28;20240;-75
2023/02/07 08:41:53;;;;;;;30.83;13.13;;;-1.20;75.20;;;;;;5009308;28;20205;-75
2023/02/07 08:44:19;;;;;;;26.50;11.97;;;-1.20;74.90;;;;;;5016322;28;20260;-75
2023/02/07 08:46:44;;;;;;;22.93;11.57;;;-1.10;75.20;;;;;;5013710;28;20988;-74
2023/02/07 08:49:10;;;;;;;25.60;13.47;;;-1.10;75.20;;;;;;5014536;28;20182;-76
2023/02/07 08:51:35;;;;;;;24.20;12.30;;;-1.10;75.20;;;;;;5011632;28;20232;-75
2023/02/07 08:54:01;;;;;;;26.20;13.27;;;-1.10;75.20;;;;;;5013277;28;20189;-74
2023/02/07 08:56:26;;;;;;;25.33;12.30;;;-1.10;75.20;;;;;;5015459;28;20256;-75
2023/02/07 08:58:52;;;;;;;26.57;13.30;;;-1.10;75.50;;;;;;5016106;28;20563;-74
2023/02/07 09:01:17;;;;;;;27.90;11.97;;;-1.10;75.50;;;;;;5015726;28;20207;-76
2023/02/07 09:03:43;;;;;;;27.97;13.27;;;-1.10;75.20;;;;;;5012764;28;20281;-76
2023/02/07 09:06:09;;;;;;;24.23;12.10;;;-1.00;75.20;;;;;;5017481;28;20189;-74
2023/02/07 09:08:35;;;;;;;23.85;11.60;;;-0.90;74.80;;;;;;5020369;28;20288;-76
2023/02/07 09:11:01;;;;;;;30.47;11.83;;;-1.00;74.00;;;;;;5015133;28;20296;-76
2023/02/07 09:13:26;;;;;;;24.17;11.60;;;-1.00;74.00;;;;;;5016416;28;20280;-76
2023/02/07 09:15:57;;;;;;;24.70;11.87;;;-1.00;74.60;;;;;;5018200;28;20228;-76
2023/02/07 09:18:24;;;;;;;21.08;11.18;;;-1.00;74.80;;;;;;5018679;28;20441;-75
2023/02/07 09:20:50;;;;;;;23.25;11.73;;;-0.90;74.80;;;;;;5017389;28;20201;-76
2023/02/07 09:23:21;;;;;;;17.97;10.73;;;-0.90;74.60;;;;;;5018322;28;20668;-73
2023/02/07 09:25:49;;;;;;;24.88;12.63;;;-0.90;74.20;;;;;;5013096;28;20507;-75
2023/02/07 09:28:16;;;;;;;22.23;12.23;;;-0.80;74.30;;;;;;5014359;28;20624;-75
2023/02/07 09:30:43;;;;;;;22.58;11.10;;;-0.70;74.30;;;;;;5016844;28;20205;-75
2023/02/07 09:33:10;;;;;;;22.23;12.20;;;-0.60;74.00;;;;;;5010925;28;20244;-74
2023/02/07 09:35:42;;;;;;;18.10;11.40;;;-0.60;74.00;;;;;;5019210;28;20860;-75
2023/02/07 09:38:13;;;;;;;25.60;11.60;;;-0.50;73.90;;;;;;5027186;28;20645;-76
2023/02/07 09:40:38;;;;;;;22.40;11.00;;;-0.50;73.60;;;;;;5028248;28;20178;-75
2023/02/07 09:43:20;;;;;;;27.17;12.93;;;-0.40;73.50;;;;;;5020011;28;20211;-75
2023/02/07 09:45:51;;;;;;;24.88;11.50;;;-0.40;73.30;;;;;;5012861;28;20181;-75
2023/02/07 09:48:23;;;;;;;22.92;12.73;;;-0.30;74.00;;;;;;5014045;28;20182;-76
2023/02/07 09:50:53;;;;;;;24.38;12.20;;;-0.30;73.70;;;;;;5025351;28;20193;-75
2023/02/07 09:53:24;;;;;;;22.55;11.95;;;-0.20;73.70;;;;;;5011021;28;20209;-75
2023/02/07 09:55:57;;;;;;;24.02;11.82;;;-0.20;73.70;;;;;;5016707;28;20248;-76
2023/02/07 09:58:36;;;;;;;24.05;12.10;;;-0.10;73.70;;;;;;5022562;28;20276;-76
2023/02/07 10:01:10;;;;;;;25.98;12.73;;;0.00;73.20;;;;;;5012095;28;20707;-75
2023/02/07 10:04:03;;;;;;;25.15;13.05;;;0.10;73.00;;;;;;5022131;28;20213;-75
2023/02/07 10:06:29;;;;;;;25.25;12.43;;;0.20;72.70;;;;;;5002832;28;20614;-76
2023/02/07 10:08:57;;;;;;;20.80;11.67;;;0.30;72.70;;;;;;5012754;28;20244;-76
2023/02/07 10:11:50;;;;;;;24.08;12.18;;;0.50;72.40;;;;;;5020345;28;20295;-76
2023/02/07 10:14:53;;;;;;;23.25;12.52;;;0.60;72.00;;;;;;5016693;28;20248;-76
2023/02/07 10:17:18;;;;;;;27.55;12.13;;;0.60;71.60;;;;;;5019542;28;20185;-76
2023/02/07 10:20:18;;;;;;;22.13;12.33;;;0.70;71.40;;;;;;5019696;28;20688;-76
2023/02/07 10:23:01;;;;;;;30.75;12.45;;;0.80;71.70;;;;;;5023481;28;20193;-75
2023/02/07 10:26:05;;;;;;;22.40;11.50;;;0.90;71.10;;;;;;5026179;28;20182;-75
2023/02/07 10:28:48;;;;;;;25.88;13.15;;;0.90;71.40;;;;;;5022447;28;20247;-76
2023/02/07 10:31:16;;;;;;;21.08;11.23;;;1.00;71.00;;;;;;5026636;28;20874;-77
2023/02/07 10:33:55;;;;;;;22.98;12.70;;;1.00;70.70;;;;;;5018549;28;20173;-76
2023/02/07 10:36:23;;;;;;;25.13;12.15;;;1.10;71.00;;;;;;5019001;28;20927;-76
2023/02/07 10:39:03;;;;;;;19.58;11.63;;;1.10;70.50;;;;;;5025414;28;20208;-77
2023/02/07 10:41:40;;;;;;;23.90;11.70;;;1.30;70.70;;;;;;5025921;28;20197;-76
2023/02/07 10:44:11;;;;;;;29.08;11.90;;;1.50;70.40;;;;;;5030191;28;20280;-76
2023/02/07 10:46:41;;;;;;;23.70;10.35;;;1.80;69.50;;;;;;5023005;28;20570;-76
2023/02/07 10:49:19;;;;;;;21.77;12.43;;;2.20;68.90;;;;;;5028558;28;20656;-75
2023/02/07 10:51:45;;;;;;;18.83;11.05;;;2.70;67.20;;;;;;5024929;28;20223;-76
2023/02/07 10:54:15;;;;;;;21.30;11.30;;;3.10;64.20;;;;;;5027294;28;20195;-75
2023/02/07 10:56:49;;;;;;;20.23;11.57;;;3.20;63.10;;;;;;5028130;28;20428;-76
2023/02/07 10:59:39;;;;;;;20.13;11.67;;;3.10;63.10;;;;;;5026381;28;20436;-76
2023/02/07 11:02:27;;;;;;;20.90;10.47;;;3.50;63.40;;;;;;5017736;28;20895;-77
2023/02/07 11:04:57;;;;;;;19.10;11.73;;;3.70;61.00;;;;;;5023558;28;20425;-77
2023/02/07 11:07:23;;;;;;;22.23;12.30;;;3.80;61.00;;;;;;5022848;28;20421;-76
2023/02/07 11:09:49;;;;;;;25.43;11.03;;;3.70;61.00;;;;;;5029715;28;20447;-77
2023/02/07 11:12:22;;;;;;;16.93;10.83;;;4.10;61.50;;;;;;5033751;28;20482;-76
2023/02/07 11:15:03;;;;;;;21.90;11.03;;;4.50;59.60;;;;;;5050334;28;20197;-74
2023/02/07 11:17:30;;;;;;;18.30;10.50;;;4.80;58.90;;;;;;5025142;28;20432;-76
2023/02/07 11:19:56;;;;;;;22.07;11.23;;;5.10;58.00;;;;;;5027787;28;20523;-76
2023/02/07 11:22:23;;;;;;;23.10;12.37;;;5.40;56.10;;;;;;5019592;28;20485;-76
2023/02/07 11:24:58;;;;;;;21.50;11.43;;;5.20;56.80;;;;;;5023553;28;20782;-76
2023/02/07 11:27:24;;;;;;;18.13;12.57;;;5.40;56.90;;;;;;5019846;28;20522;-76
2023/02/07 11:29:53;;;;;;;20.67;12.67;;;5.40;56.40;;;;;;5029368;28;20448;-75
2023/02/07 11:32:21;;;;;;;25.83;13.43;;;4.90;57.00;;;;;;5014530;28;20213;-77
2023/02/07 11:34:56;;;;;;;25.50;12.70;;;4.60;58.50;;;;;;5027733;28;20979;-75
2023/02/07 11:37:36;;;;;;;21.77;11.43;;;4.50;58.90;;;;;;5022976;28;20444;-78
2023/02/07 11:40:22;;;;;;;25.10;12.33;;;4.60;59.20;;;;;;5038052;28;20420;-75
2023/02/07 11:42:49;;;;;;;27.70;11.90;;;4.70;58.00;;;;;;5035383;28;20439;-76
2023/02/07 11:45:20;;;;;;;21.83;11.37;;;4.30;59.50;;;;;;5034995;28;20431;-77
2023/02/07 11:47:49;;;;;;;20.93;12.03;;;4.30;59.60;;;;;;5020362;28;20560;-77
2023/02/07 11:50:23;;;;;;;18.27;11.23;;;4.30;58.90;;;;;;5025852;28;20550;-76
2023/02/07 11:52:52;;;;;;;27.10;12.40;;;4.30;59.20;;;;;;5015399;28;20540;-76
2023/02/07 11:55:23;;;;;;;19.00;11.90;;;4.40;59.10;;;;;;5020686;28;20485;-75
2023/02/07 11:57:49;;;;;;;21.10;12.30;;;4.50;58.90;;;;;;5020756;28;20499;-76
2023/02/07 12:00:41;;;;;;;25.73;13.07;;;4.50;58.80;;;;;;5016571;28;20947;-75
2023/02/07 12:03:27;;;;;;;26.13;13.13;;;4.30;58.80;;;;;;5010770;28;20218;-75
2023/02/07 12:05:59;;;;;;;19.27;11.23;;;4.10;59.10;;;;;;5027532;28;20907;-77
2023/02/07 12:08:30;;;;;;;21.90;11.60;;;3.80;60.30;;;;;;5020638;28;20482;-77
2023/02/07 12:10:59;;;;;;;22.13;12.27;;;3.70;60.70;;;;;;5023044;28;20798;-77
2023/02/07 12:13:48;;;;;;;27.25;13.40;;;3.50;61.50;;;;;;5017449;28;20197;-77
2023/02/07 12:16:23;;;;;;;23.77;12.30;;;3.30;62.60;;;;;;5021094;28;20665;-77
2023/02/07 12:18:56;;;;;;;26.07;12.90;;;3.30;63.70;;;;;;5025471;28;20208;-76
2023/02/07 12:21:45;;;;;;;39.10;18.75;;;3.30;63.20;;;;;;5013740;28;20423;-77
2023/02/07 12:24:22;;;;;;;20.00;12.40;;;3.50;62.90;;;;;;5013658;28;20174;-77
2023/02/07 12:26:54;;;;;;;24.02;13.10;;;3.60;62.60;;;;;;5009392;28;20421;-77
2023/02/07 12:29:35;;;;;;;23.90;12.33;;;3.80;62.20;;;;;;5018757;28;21004;-76
2023/02/07 12:32:23;;;;;;;24.20;13.03;;;4.00;62.00;;;;;;5009852;28;20476;-76
2023/02/07 12:34:59;;;;;;;24.10;12.77;;;4.30;60.10;;;;;;5015564;28;20428;-76
2023/02/07 12:37:37;;;;;;;22.50;12.00;;;4.40;59.10;;;;;;5017399;28;20463;-76
2023/02/07 12:40:11;;;;;;;21.60;12.80;;;4.40;59.30;;;;;;5018651;28;20499;-77
2023/02/07 12:42:56;;;;;;;21.77;10.93;;;4.60;59.50;;;;;;5022125;28;20484;-77
2023/02/07 12:45:45;;;;;;;20.20;11.30;;;5.10;58.80;;;;;;5013053;28;20446;-76
2023/02/07 12:48:55;;;;;;;18.67;11.37;;;5.60;57.40;;;;;;5015291;28;20499;-76